Time;durP1;ratioP1;P1;durP2;ratioP2;P2;SDS_P1;SDS_P2;PMS_P1;PMS_P2;Temp;Humidity;BMP_temperature;BMP_pressure;BME280_temperature;BME280_humidity;BME280_pressure;Samples;Min_cycle;Max_cycle;Signal;HPM_P1;HPM_P2
2024/03/08 00:02:00;;;;;;;18.80;11.33;;;;;;;;;;5013927;28;20419;-80
2024/03/08 00:04:26;;;;;;;15.63;11.83;;;;;;;;;;5013873;28;20850;-79
2024/03/08 00:06:52;;;;;;;18.93;12.60;;;;;;;;;;5013994;28;20453;-78
2024/03/08 00:09:18;;;;;;;16.90;10.90;;;;;;;;;;5013574;28;20517;-80
2024/03/08 00:11:44;;;;;;;17.03;11.37;;;;;;;;;;5012542;28;20933;-78
2024/03/08 00:14:10;;;;;;;20.80;13.20;;;;;;;;;;5013681;28;20469;-81
2024/03/08 00:16:37;;;;;;;20.93;12.50;;;;;;;;;;5013713;28;20419;-77
2024/03/08 00:19:03;;;;;;;16.67;10.90;;;;;;;;;;5013699;28;20463;-77
2024/03/08 00:21:29;;;;;;;18.00;12.50;;;;;;;;;;5013700;28;20955;-78
2024/03/08 00:23:55;;;;;;;14.93;11.43;;;;;;;;;;5012043;28;20414;-77
2024/03/08 00:26:22;;;;;;;27.20;13.47;;;;;;;;;;5013456;28;20970;-77
2024/03/08 00:28:48;;;;;;;19.37;12.77;;;;;;;;;;5013581;28;20569;-78
2024/03/08 00:31:16;;;;;;;16.43;11.87;;;;;;;;;;5013427;28;20489;-79
2024/03/08 00:33:42;;;;;;;20.33;13.10;;;;;;;;;;5013393;28;20474;-78
2024/03/08 00:36:08;;;;;;;21.17;13.53;;;;;;;;;;5012029;28;20441;-79
2024/03/08 00:38:34;;;;;;;21.57;13.30;;;;;;;;;;5013072;28;20423;-80
2024/03/08 00:41:00;;;;;;;21.60;13.10;;;;;;;;;;5013321;28;20425;-78
2024/03/08 00:43:26;;;;;;;25.10;12.77;;;;;;;;;;5013427;28;20432;-80
2024/03/08 00:45:52;;;;;;;20.70;13.30;;;;;;;;;;5013283;28;20414;-78
2024/03/08 00:48:18;;;;;;;22.50;15.30;;;;;;;;;;5011718;28;20421;-77
2024/03/08 00:50:47;;;;;;;26.57;17.40;;;;;;;;;;5005960;28;20415;-78
2024/03/08 00:53:13;;;;;;;27.43;17.50;;;;;;;;;;4993273;28;20804;-79
2024/03/08 00:55:39;;;;;;;22.53;13.43;;;;;;;;;;4993652;28;20505;-79
2024/03/08 00:58:05;;;;;;;19.33;11.50;;;;;;;;;;4992869;28;20481;-78
2024/03/08 01:00:31;;;;;;;21.00;11.77;;;;;;;;;;5004892;28;20944;-79
2024/03/08 01:02:57;;;;;;;19.37;12.30;;;;;;;;;;5012901;28;20513;-80
2024/03/08 01:05:25;;;;;;;21.40;12.23;;;;;;;;;;5012961;28;20930;-78
2024/03/08 01:07:51;;;;;;;22.70;13.80;;;;;;;;;;5011770;28;20907;-77
2024/03/08 01:10:17;;;;;;;20.80;12.93;;;;;;;;;;5012587;28;20410;-81
2024/03/08 01:12:44;;;;;;;18.70;12.50;;;;;;;;;;5012957;28;20464;-81
2024/03/08 01:15:10;;;;;;;24.70;14.80;;;;;;;;;;5012979;28;20424;-78
2024/03/08 01:17:36;;;;;;;22.67;14.67;;;;;;;;;;5012872;28;21164;-77
2024/03/08 01:20:03;;;;;;;22.77;12.60;;;;;;;;;;5012790;28;20429;-78
2024/03/08 01:22:29;;;;;;;20.43;12.93;;;;;;;;;;5012858;28;20421;-77
2024/03/08 01:24:55;;;;;;;16.00;10.87;;;;;;;;;;5012615;28;20445;-77
2024/03/08 01:27:21;;;;;;;19.40;11.80;;;;;;;;;;5012934;28;20410;-77
2024/03/08 01:29:47;;;;;;;21.07;11.70;;;;;;;;;;5012522;28;20552;-77
2024/03/08 01:32:14;;;;;;;21.07;12.50;;;;;;;;;;5012289;28;20938;-79
2024/03/08 01:34:40;;;;;;;19.10;12.17;;;;;;;;;;5012710;28;20418;-81
2024/03/08 01:37:06;;;;;;;20.23;11.33;;;;;;;;;;5012805;28;20964;-81
2024/03/08 01:39:32;;;;;;;19.87;12.50;;;;;;;;;;5012368;28;20769;-79
2024/03/08 01:41:58;;;;;;;21.30;11.80;;;;;;;;;;5012758;28;20410;-76
2024/03/08 01:44:24;;;;;;;19.33;12.27;;;;;;;;;;5012559;28;20416;-77
2024/03/08 01:46:52;;;;;;;20.30;13.33;;;;;;;;;;5012450;28;20406;-76
2024/03/08 01:49:20;;;;;;;21.03;13.80;;;;;;;;;;5012671;28;20426;-79
2024/03/08 01:51:46;;;;;;;24.00;13.67;;;;;;;;;;5012604;28;20410;-79
2024/03/08 01:54:13;;;;;;;17.20;12.37;;;;;;;;;;5012114;28;20470;-76
2024/03/08 01:56:39;;;;;;;19.37;12.77;;;;;;;;;;5012608;28;20460;-76
2024/03/08 01:59:07;;;;;;;21.10;12.63;;;;;;;;;;5012518;28;20453;-79
2024/03/08 02:01:33;;;;;;;22.40;13.40;;;;;;;;;;5012539;28;20894;-76
2024/03/08 02:04:00;;;;;;;20.57;11.17;;;;;;;;;;5012516;28;20417;-78
2024/03/08 02:06:25;;;;;;;22.70;13.80;;;;;;;;;;5012488;28;20492;-77
2024/03/08 02:08:51;;;;;;;21.97;12.80;;;;;;;;;;5012575;28;20422;-79
2024/03/08 02:11:18;;;;;;;21.17;12.90;;;;;;;;;;5016132;28;20416;-77
2024/03/08 02:13:44;;;;;;;21.73;12.57;;;;;;;;;;5016032;28;20548;-78
2024/03/08 02:16:10;;;;;;;19.43;12.53;;;;;;;;;;5015876;28;20419;-82
2024/03/08 02:18:39;;;;;;;21.93;13.60;;;;;;;;;;5016065;28;20453;-77
2024/03/08 02:21:05;;;;;;;20.53;14.57;;;;;;;;;;5015645;28;20890;-80
2024/03/08 02:23:32;;;;;;;21.70;13.50;;;;;;;;;;5015252;28;20472;-77
2024/03/08 02:25:58;;;;;;;22.43;13.07;;;;;;;;;;5015798;28;20418;-77
2024/03/08 02:28:25;;;;;;;16.80;11.07;;;;;;;;;;5015668;28;20475;-78
2024/03/08 02:30:51;;;;;;;24.37;14.50;;;;;;;;;;5014350;28;20546;-77
2024/03/08 02:33:17;;;;;;;19.17;12.13;;;;;;;;;;5014385;28;20478;-82
2024/03/08 02:35:46;;;;;;;21.60;12.97;;;;;;;;;;5015744;28;20418;-82
2024/03/08 02:38:16;;;;;;;23.90;12.70;;;;;;;;;;5015103;28;20448;-78
2024/03/08 02:40:48;;;;;;;24.53;14.70;;;;;;;;;;5015461;28;20422;-78
2024/03/08 02:43:15;;;;;;;20.97;12.30;;;;;;;;;;5015569;28;20476;-78
2024/03/08 02:45:45;;;;;;;19.53;13.87;;;;;;;;;;5015506;28;20794;-79
2024/03/08 02:48:11;;;;;;;24.73;15.27;;;;;;;;;;5014169;28;20418;-80
2024/03/08 02:50:37;;;;;;;24.90;17.20;;;;;;;;;;5015465;28;20810;-78
2024/03/08 02:53:03;;;;;;;21.93;14.03;;;;;;;;;;5014860;28;20508;-78
2024/03/08 02:55:29;;;;;;;20.73;13.30;;;;;;;;;;5015347;28;20421;-79
2024/03/08 02:57:55;;;;;;;28.00;14.57;;;;;;;;;;5015214;28;20505;-78
2024/03/08 03:00:23;;;;;;;20.23;14.07;;;;;;;;;;5015047;28;20421;-78
2024/03/08 03:02:53;;;;;;;19.67;12.17;;;;;;;;;;5015133;28;20806;-77
2024/03/08 03:05:19;;;;;;;24.10;14.23;;;;;;;;;;5013845;28;21037;-77
2024/03/08 03:07:45;;;;;;;20.83;13.77;;;;;;;;;;5015090;28;20458;-79
2024/03/08 03:10:12;;;;;;;24.43;15.70;;;;;;;;;;5014540;28;20772;-80
2024/03/08 03:12:38;;;;;;;21.53;12.47;;;;;;;;;;5014932;28;21045;-77
2024/03/08 03:15:06;;;;;;;25.10;14.10;;;;;;;;;;5015014;28;20421;-78
2024/03/08 03:17:32;;;;;;;21.67;13.73;;;;;;;;;;5014757;28;20421;-78
2024/03/08 03:19:58;;;;;;;26.67;14.13;;;;;;;;;;5011606;28;20913;-78
2024/03/08 03:22:25;;;;;;;19.63;14.47;;;;;;;;;;5012734;28;20413;-77
2024/03/08 03:24:51;;;;;;;22.10;13.50;;;;;;;;;;5012870;28;20476;-78
2024/03/08 03:27:17;;;;;;;25.30;15.20;;;;;;;;;;5014459;28;20410;-78
2024/03/08 03:29:47;;;;;;;22.50;13.87;;;;;;;;;;5014489;28;20488;-78
2024/03/08 03:32:13;;;;;;;26.90;15.67;;;;;;;;;;5013770;28;20413;-77
2024/03/08 03:34:39;;;;;;;25.50;14.40;;;;;;;;;;5011851;28;20418;-77
2024/03/08 03:37:06;;;;;;;20.10;14.17;;;;;;;;;;5014292;28;20505;-78
2024/03/08 03:39:34;;;;;;;23.87;12.67;;;;;;;;;;5012687;28;20837;-77
2024/03/08 03:42:01;;;;;;;23.53;13.73;;;;;;;;;;5011856;28;20493;-79
2024/03/08 03:44:27;;;;;;;26.73;13.07;;;;;;;;;;5014310;28;20913;-77
2024/03/08 03:46:53;;;;;;;22.80;13.50;;;;;;;;;;5014136;28;20417;-77
2024/03/08 03:49:19;;;;;;;24.07;14.70;;;;;;;;;;5014247;28;20420;-78
2024/03/08 03:51:45;;;;;;;32.00;15.03;;;;;;;;;;5014115;28;20519;-79
2024/03/08 03:54:12;;;;;;;24.80;14.20;;;;;;;;;;5013696;28;20469;-78
2024/03/08 03:56:39;;;;;;;21.97;12.17;;;;;;;;;;5011362;28;20530;-77
2024/03/08 03:59:06;;;;;;;24.93;13.97;;;;;;;;;;5013982;28;20495;-77
2024/03/08 04:01:32;;;;;;;22.03;13.97;;;;;;;;;;5013943;28;20414;-76
2024/03/08 04:03:58;;;;;;;25.37;14.87;;;;;;;;;;5011159;28;20422;-77
2024/03/08 04:06:24;;;;;;;26.37;14.03;;;;;;;;;;5013811;28;20406;-76
2024/03/08 04:08:50;;;;;;;22.17;13.50;;;;;;;;;;5013334;28;20417;-76
2024/03/08 04:11:16;;;;;;;21.50;13.67;;;;;;;;;;5013696;28;20968;-77
2024/03/08 04:13:42;;;;;;;25.23;14.57;;;;;;;;;;5013666;28;20465;-77
2024/03/08 04:16:11;;;;;;;26.63;13.17;;;;;;;;;;5013731;28;20768;-77
2024/03/08 04:18:37;;;;;;;23.43;12.70;;;;;;;;;;5013551;28;20497;-77
2024/03/08 04:21:08;;;;;;;21.33;14.40;;;;;;;;;;5013409;28;20461;-77
2024/03/08 04:23:37;;;;;;;22.23;13.00;;;;;;;;;;5013187;28;20866;-77
2024/03/08 04:26:04;;;;;;;29.33;14.93;;;;;;;;;;5012221;28;20479;-78
2024/03/08 04:28:31;;;;;;;23.37;14.13;;;;;;;;;;5013480;28;20933;-77
2024/03/08 04:30:57;;;;;;;23.77;13.97;;;;;;;;;;5013147;28;20460;-77
2024/03/08 04:33:23;;;;;;;25.23;15.30;;;;;;;;;;5012407;28;20481;-77
2024/03/08 04:35:49;;;;;;;28.13;16.37;;;;;;;;;;5013398;28;20460;-78
2024/03/08 04:38:15;;;;;;;28.97;16.27;;;;;;;;;;5012859;28;20414;-77
2024/03/08 04:40:41;;;;;;;23.20;13.60;;;;;;;;;;5013270;28;20418;-76
2024/03/08 04:43:08;;;;;;;21.00;12.53;;;;;;;;;;5013459;28;20420;-76
2024/03/08 04:45:34;;;;;;;23.90;12.80;;;;;;;;;;5013666;28;20448;-78
2024/03/08 04:48:00;;;;;;;21.23;13.57;;;;;;;;;;5013689;28;20419;-77
2024/03/08 04:50:28;;;;;;;23.07;14.93;;;;;;;;;;5013672;28;20412;-76
2024/03/08 04:52:54;;;;;;;21.73;12.13;;;;;;;;;;5013150;28;20511;-78
2024/03/08 04:55:21;;;;;;;27.00;14.97;;;;;;;;;;5013617;28;20472;-77
2024/03/08 04:57:47;;;;;;;25.90;15.97;;;;;;;;;;5013489;28;20401;-76
2024/03/08 05:00:14;;;;;;;27.10;13.73;;;;;;;;;;5013453;28;20409;-76
2024/03/08 05:02:41;;;;;;;31.47;16.50;;;;;;;;;;5013466;28;20416;-77
2024/03/08 05:05:07;;;;;;;23.70;13.57;;;;;;;;;;5013420;28;20410;-77
2024/03/08 05:07:33;;;;;;;24.13;15.17;;;;;;;;;;5013101;28;20939;-77
2024/03/08 05:09:59;;;;;;;22.77;12.87;;;;;;;;;;5013406;28;20414;-77
2024/03/08 05:12:25;;;;;;;27.63;15.63;;;;;;;;;;5013230;28;20895;-78
2024/03/08 05:14:51;;;;;;;24.57;15.00;;;;;;;;;;5013358;28;20421;-82
2024/03/08 05:17:17;;;;;;;25.97;13.67;;;;;;;;;;5013257;28;20509;-81
2024/03/08 05:19:43;;;;;;;25.30;14.70;;;;;;;;;;5013328;28;20794;-78
2024/03/08 05:22:09;;;;;;;27.53;16.43;;;;;;;;;;5013292;28;20402;-80
2024/03/08 05:24:35;;;;;;;24.67;15.90;;;;;;;;;;5012890;28;20463;-81
2024/03/08 05:27:02;;;;;;;28.07;15.33;;;;;;;;;;5013103;28;20916;-79
2024/03/08 05:29:28;;;;;;;23.13;15.17;;;;;;;;;;5013028;28;20469;-81
2024/03/08 05:31:54;;;;;;;31.27;15.37;;;;;;;;;;5013184;28;20433;-78
2024/03/08 05:34:21;;;;;;;28.53;15.00;;;;;;;;;;5013131;28;20566;-78
2024/03/08 05:37:00;;;;;;;31.87;16.03;;;;;;;;;;5011918;28;20894;-80
2024/03/08 05:39:26;;;;;;;23.73;14.97;;;;;;;;;;5012763;28;20948;-78
2024/03/08 05:41:52;;;;;;;26.73;15.40;;;;;;;;;;5013055;28;20497;-77
2024/03/08 05:44:18;;;;;;;28.53;15.60;;;;;;;;;;5014290;28;20437;-78
2024/03/08 05:46:44;;;;;;;22.90;12.67;;;;;;;;;;5016968;28;20417;-77
2024/03/08 05:49:11;;;;;;;30.33;17.20;;;;;;;;;;5016846;28;20428;-79
2024/03/08 05:51:39;;;;;;;28.27;16.13;;;;;;;;;;5016802;28;20425;-78
2024/03/08 05:54:05;;;;;;;28.13;14.93;;;;;;;;;;5016422;28;20874;-79
2024/03/08 05:56:31;;;;;;;22.73;14.73;;;;;;;;;;5016862;28;20410;-78
2024/03/08 05:59:00;;;;;;;23.90;14.93;;;;;;;;;;5016717;28;20425;-78
2024/03/08 06:01:26;;;;;;;33.00;17.37;;;;;;;;;;5016710;28;20452;-77
2024/03/08 06:03:55;;;;;;;29.67;15.90;;;;;;;;;;5016510;28;20918;-78
2024/03/08 06:06:21;;;;;;;25.10;14.83;;;;;;;;;;5016679;28;20429;-77
2024/03/08 06:08:48;;;;;;;31.33;16.13;;;;;;;;;;5016266;28;20414;-78
2024/03/08 06:11:15;;;;;;;25.83;16.27;;;;;;;;;;5016507;28;20413;-82
2024/03/08 06:13:40;;;;;;;26.50;16.30;;;;;;;;;;5016321;28;20476;-78
2024/03/08 06:16:08;;;;;;;26.50;16.10;;;;;;;;;;5015095;28;20439;-80
2024/03/08 06:18:36;;;;;;;30.63;18.43;;;;;;;;;;5016311;28;20427;-81
2024/03/08 06:21:02;;;;;;;20.87;14.10;;;;;;;;;;5016340;28;20496;-81
2024/03/08 06:23:28;;;;;;;23.67;15.27;;;;;;;;;;5015893;28;20446;-81
2024/03/08 06:25:54;;;;;;;24.67;13.80;;;;;;;;;;5016120;28;20415;-79
2024/03/08 06:28:20;;;;;;;26.37;16.43;;;;;;;;;;5016193;28;20418;-80
2024/03/08 06:30:46;;;;;;;33.03;17.20;;;;;;;;;;5015965;28;20464;-79
2024/03/08 06:33:12;;;;;;;30.17;16.70;;;;;;;;;;5015943;28;20472;-80
2024/03/08 06:35:38;;;;;;;31.90;17.17;;;;;;;;;;5016008;28;20413;-77
2024/03/08 06:38:07;;;;;;;31.00;17.83;;;;;;;;;;5015524;28;20979;-78
2024/03/08 06:40:33;;;;;;;31.27;16.67;;;;;;;;;;5015852;28;20426;-78
2024/03/08 06:42:59;;;;;;;35.30;17.37;;;;;;;;;;5015718;28;20448;-78
2024/03/08 06:45:25;;;;;;;33.33;18.67;;;;;;;;;;5015722;28;20480;-77
2024/03/08 06:47:51;;;;;;;34.30;18.70;;;;;;;;;;5015604;28;20422;-79
2024/03/08 06:50:17;;;;;;;33.87;19.57;;;;;;;;;;5015625;28;20930;-79
2024/03/08 06:52:44;;;;;;;32.90;17.80;;;;;;;;;;5015169;28;20458;-79
2024/03/08 06:55:13;;;;;;;25.23;17.27;;;;;;;;;;5015419;28;20994;-80
2024/03/08 06:57:40;;;;;;;25.60;18.10;;;;;;;;;;5015092;28;20807;-80
2024/03/08 07:00:09;;;;;;;25.27;16.33;;;;;;;;;;5015621;28;20452;-79
2024/03/08 07:02:35;;;;;;;24.13;16.87;;;;;;;;;;5015578;28;20920;-78
2024/03/08 07:05:01;;;;;;;23.93;15.80;;;;;;;;;;5015404;28;20418;-77
2024/03/08 07:07:27;;;;;;;20.53;12.73;;;;;;;;;;5015078;28;20411;-78
2024/03/08 07:09:54;;;;;;;23.67;13.53;;;;;;;;;;5015251;28;20896;-79
2024/03/08 07:12:20;;;;;;;21.97;14.00;;;;;;;;;;5015375;28;20864;-78
2024/03/08 07:14:46;;;;;;;19.53;12.90;;;;;;;;;;5015288;28;20499;-78
2024/03/08 07:17:13;;;;;;;17.87;13.37;;;;;;;;;;5015225;28;20464;-77
2024/03/08 07:19:39;;;;;;;23.30;13.80;;;;;;;;;;5015188;28;20753;-81
2024/03/08 07:22:08;;;;;;;21.17;14.27;;;;;;;;;;5013946;28;20418;-81
2024/03/08 07:24:49;;;;;;;20.60;13.73;;;;;;;;;;5015147;28;20753;-81
2024/03/08 07:27:15;;;;;;;25.10;15.20;;;;;;;;;;5014947;28;20495;-80
2024/03/08 07:29:42;;;;;;;22.73;15.13;;;;;;;;;;5014862;28;20465;-81
2024/03/08 07:32:25;;;;;;;18.90;13.80;;;;;;;;;;5014914;28;20903;-80
2024/03/08 07:34:51;;;;;;;21.70;15.07;;;;;;;;;;5014905;28;20450;-81
2024/03/08 07:37:17;;;;;;;20.67;13.20;;;;;;;;;;5013216;28;20535;-81
2024/03/08 07:39:43;;;;;;;20.17;13.50;;;;;;;;;;5014727;28;20474;-80
2024/03/08 07:42:12;;;;;;;21.87;14.10;;;;;;;;;;5014931;28;20984;-80
2024/03/08 07:44:39;;;;;;;17.90;14.13;;;;;;;;;;5014628;28;20612;-80
2024/03/08 07:47:07;;;;;;;21.40;14.50;;;;;;;;;;5014624;28;20467;-81
2024/03/08 07:49:34;;;;;;;19.17;13.40;;;;;;;;;;5014662;28;20418;-81
2024/03/08 07:52:00;;;;;;;21.20;14.77;;;;;;;;;;5014653;28;20518;-81
2024/03/08 07:54:26;;;;;;;19.40;14.67;;;;;;;;;;5014236;28;20553;-81
2024/03/08 07:56:52;;;;;;;23.87;15.60;;;;;;;;;;5014655;28;20681;-80
2024/03/08 07:59:18;;;;;;;20.30;14.50;;;;;;;;;;5014494;28;20184;-79
2024/03/08 08:01:44;;;;;;;20.10;15.33;;;;;;;;;;5014377;28;20828;-79
2024/03/08 08:04:12;;;;;;;17.23;13.70;;;;;;;;;;5014327;28;20425;-80
2024/03/08 08:06:41;;;;;;;18.07;14.17;;;;;;;;;;5014052;28;20416;-79
2024/03/08 08:09:28;;;;;;;17.10;13.30;;;;;;;;;;5013763;28;20909;-77
2024/03/08 08:11:53;;;;;;;21.90;15.77;;;;;;;;;;5014204;28;20413;-78
2024/03/08 08:14:21;;;;;;;19.27;14.53;;;;;;;;;;5014101;28;20482;-81
2024/03/08 08:16:48;;;;;;;19.20;14.93;;;;;;;;;;5014176;28;20578;-82
2024/03/08 08:19:14;;;;;;;18.83;14.60;;;;;;;;;;5012851;28;20432;-77
2024/03/08 08:21:39;;;;;;;19.27;15.90;;;;;;;;;;5014056;28;20768;-79
2024/03/08 08:24:06;;;;;;;20.07;15.80;;;;;;;;;;5013677;28;20448;-79
2024/03/08 08:26:35;;;;;;;20.20;16.07;;;;;;;;;;5013768;28;20421;-79
2024/03/08 08:29:01;;;;;;;19.00;15.93;;;;;;;;;;5013525;28;20425;-77
2024/03/08 08:31:27;;;;;;;16.60;14.00;;;;;;;;;;5013399;28;20427;-78
2024/03/08 08:33:58;;;;;;;19.57;14.57;;;;;;;;;;5013119;28;20729;-80
2024/03/08 08:36:24;;;;;;;21.40;15.40;;;;;;;;;;5011008;28;20406;-77
2024/03/08 08:38:50;;;;;;;21.07;16.27;;;;;;;;;;5012908;28;20418;-77
2024/03/08 08:41:17;;;;;;;19.90;17.30;;;;;;;;;;5013157;28;20412;-76
2024/03/08 08:43:43;;;;;;;19.63;17.03;;;;;;;;;;5012879;28;20918;-80
2024/03/08 08:46:13;;;;;;;23.57;16.50;;;;;;;;;;5013146;28;20409;-79
2024/03/08 08:48:41;;;;;;;19.60;15.50;;;;;;;;;;5012952;28;20779;-76
2024/03/08 08:51:07;;;;;;;20.77;15.10;;;;;;;;;;5013138;28;20415;-78
2024/03/08 08:53:35;;;;;;;19.60;14.20;;;;;;;;;;5012539;28;20558;-79
2024/03/08 08:56:01;;;;;;;18.97;16.40;;;;;;;;;;5008906;28;20774;-78
2024/03/08 08:58:27;;;;;;;20.50;14.27;;;;;;;;;;5012847;28;20441;-79
2024/03/08 09:00:53;;;;;;;19.27;16.13;;;;;;;;;;5013000;28;20835;-77
2024/03/08 09:03:19;;;;;;;18.57;15.50;;;;;;;;;;5012910;28;20374;-78
2024/03/08 09:05:45;;;;;;;17.27;14.80;;;;;;;;;;5012854;28;20175;-77
2024/03/08 09:08:11;;;;;;;16.07;14.00;;;;;;;;;;5011324;28;20693;-78
2024/03/08 09:10:38;;;;;;;20.30;16.27;;;;;;;;;;5012773;28;20174;-77
2024/03/08 09:13:06;;;;;;;20.27;15.67;;;;;;;;;;5012633;28;20976;-77
2024/03/08 09:15:32;;;;;;;20.00;15.17;;;;;;;;;;5010192;28;20408;-77
2024/03/08 09:17:59;;;;;;;20.13;15.20;;;;;;;;;;5012760;28;20842;-78
2024/03/08 09:20:24;;;;;;;17.90;15.10;;;;;;;;;;5012384;28;20547;-79
2024/03/08 09:22:50;;;;;;;16.87;14.60;;;;;;;;;;5012173;28;20414;-77
2024/03/08 09:25:16;;;;;;;17.50;15.57;;;;;;;;;;5013008;28;20480;-77
2024/03/08 09:27:42;;;;;;;20.87;17.27;;;;;;;;;;5013323;28;20405;-78
2024/03/08 09:30:08;;;;;;;17.80;14.53;;;;;;;;;;5013029;28;20703;-76
2024/03/08 09:32:34;;;;;;;21.77;16.10;;;;;;;;;;5013037;28;20179;-76
2024/03/08 09:35:01;;;;;;;18.77;15.77;;;;;;;;;;5013106;28;20538;-77
2024/03/08 09:37:27;;;;;;;22.67;15.43;;;;;;;;;;5012700;28;20177;-77
2024/03/08 09:39:53;;;;;;;17.30;14.77;;;;;;;;;;5012954;28;20414;-76
2024/03/08 09:42:19;;;;;;;18.80;14.27;;;;;;;;;;5013040;28;20401;-76
2024/03/08 09:44:46;;;;;;;18.67;14.27;;;;;;;;;;5012886;28;20448;-78
2024/03/08 09:47:13;;;;;;;20.50;15.43;;;;;;;;;;5012636;28;20421;-77
2024/03/08 09:49:40;;;;;;;18.70;14.33;;;;;;;;;;5051609;22;20481;-79
2024/03/08 09:52:07;;;;;;;18.10;14.43;;;;;;;;;;4991148;28;20543;-78
2024/03/08 09:54:33;;;;;;;19.57;15.13;;;;;;;;;;4992492;28;20474;-78
2024/03/08 09:56:59;;;;;;;18.47;16.23;;;;;;;;;;4992458;28;20424;-78
2024/03/08 10:01:56;;;;;;;19.77;16.03;;;;;;;;;;4992917;28;20421;-76
2024/03/08 10:04:22;;;;;;;21.50;15.70;;;;;;;;;;4992863;28;20181;-76
2024/03/08 10:06:48;;;;;;;18.60;15.53;;;;;;;;;;4992557;28;20414;-76
2024/03/08 10:09:15;;;;;;;19.03;13.80;;;;;;;;;;4991282;28;20823;-77
2024/03/08 10:11:42;;;;;;;19.10;15.67;;;;;;;;;;4992297;28;20184;-78
2024/03/08 10:14:09;;;;;;;19.20;15.80;;;;;;;;;;4989613;28;20477;-77
2024/03/08 10:16:35;;;;;;;21.23;15.93;;;;;;;;;;4992226;28;20484;-77
2024/03/08 10:19:01;;;;;;;17.60;14.73;;;;;;;;;;4992316;28;20427;-77
2024/03/08 10:21:27;;;;;;;17.57;15.03;;;;;;;;;;4992004;28;20411;-78
2024/03/08 10:23:53;;;;;;;17.10;14.90;;;;;;;;;;4991745;28;20432;-78
2024/03/08 10:26:21;;;;;;;16.97;14.00;;;;;;;;;;4992251;28;20912;-78
2024/03/08 10:28:51;;;;;;;18.90;15.13;;;;;;;;;;4992213;28;20423;-81
2024/03/08 10:31:19;;;;;;;16.57;14.80;;;;;;;;;;4993081;28;20411;-78
2024/03/08 10:33:45;;;;;;;20.33;15.53;;;;;;;;;;4995192;28;20475;-79
2024/03/08 10:36:12;;;;;;;18.10;14.23;;;;;;;;;;4993452;28;20446;-79
2024/03/08 10:38:40;;;;;;;16.70;13.97;;;;;;;;;;4993908;28;20809;-80
2024/03/08 10:41:06;;;;;;;15.40;12.53;;;;;;;;;;4995534;28;20416;-78
2024/03/08 10:43:37;;;;;;;18.70;16.30;;;;;;;;;;4991941;28;20443;-80
2024/03/08 10:46:22;;;;;;;16.87;14.57;;;;;;;;;;4994581;28;20402;-79
2024/03/08 10:48:50;;;;;;;21.67;19.33;;;;;;;;;;4993976;28;20426;-81
2024/03/08 10:51:16;;;;;;;17.10;14.10;;;;;;;;;;4990569;28;20410;-88
2024/03/08 10:53:43;;;;;;;16.40;13.13;;;;;;;;;;4995269;28;20478;-82
2024/03/08 10:56:09;;;;;;;17.40;12.40;;;;;;;;;;4994945;28;20822;-81
2024/03/08 10:58:36;;;;;;;15.37;13.80;;;;;;;;;;4983169;28;20423;-87
2024/03/08 11:01:02;;;;;;;15.97;14.30;;;;;;;;;;4976052;28;20409;-84
2024/03/08 11:03:44;;;;;;;15.77;13.30;;;;;;;;;;4975909;28;20824;-82
2024/03/08 11:06:22;;;;;;;19.17;14.30;;;;;;;;;;4975757;28;20808;-82
2024/03/08 11:08:50;;;;;;;14.90;12.80;;;;;;;;;;4991194;28;20438;-78
2024/03/08 11:11:27;;;;;;;17.10;14.90;;;;;;;;;;4995355;28;20552;-84
2024/03/08 11:13:54;;;;;;;16.37;13.67;;;;;;;;;;4994547;28;20512;-78
2024/03/08 11:16:26;;;;;;;16.60;14.20;;;;;;;;;;4995001;28;20426;-82
2024/03/08 11:18:56;;;;;;;16.73;14.17;;;;;;;;;;4995710;28;20823;-80
2024/03/08 11:21:26;;;;;;;14.90;12.60;;;;;;;;;;4995660;28;20416;-78
2024/03/08 11:24:01;;;;;;;16.53;12.50;;;;;;;;;;4994719;28;20907;-81
2024/03/08 11:26:27;;;;;;;14.63;11.77;;;;;;;;;;4995142;28;20429;-77
2024/03/08 11:28:55;;;;;;;14.97;12.77;;;;;;;;;;4994875;28;20418;-82
2024/03/08 11:31:21;;;;;;;13.87;12.30;;;;;;;;;;4995453;28;20424;-78
2024/03/08 11:33:49;;;;;;;14.90;12.37;;;;;;;;;;4995195;28;20478;-80
2024/03/08 11:36:22;;;;;;;15.57;12.27;;;;;;;;;;4995284;28;20535;-77
2024/03/08 11:38:48;;;;;;;15.57;12.27;;;;;;;;;;4994749;28;20506;-79
2024/03/08 11:41:14;;;;;;;16.17;12.80;;;;;;;;;;4995188;28;20450;-79
2024/03/08 11:43:44;;;;;;;16.83;12.93;;;;;;;;;;4994829;28;20985;-81
2024/03/08 11:46:12;;;;;;;19.67;14.13;;;;;;;;;;4995107;28;20513;-77
2024/03/08 11:48:38;;;;;;;16.40;13.07;;;;;;;;;;4995148;28;20418;-77
2024/03/08 11:51:04;;;;;;;16.00;13.77;;;;;;;;;;4993512;28;20474;-80
2024/03/08 11:53:31;;;;;;;13.30;11.60;;;;;;;;;;4994573;28;20221;-78
2024/03/08 11:56:06;;;;;;;12.70;11.40;;;;;;;;;;4994775;28;20911;-78
2024/03/08 11:58:32;;;;;;;16.60;13.30;;;;;;;;;;4994909;28;20816;-78
2024/03/08 12:01:09;;;;;;;16.53;12.70;;;;;;;;;;4994786;28;20412;-77
2024/03/08 12:03:35;;;;;;;14.73;12.27;;;;;;;;;;4993510;28;20186;-78
2024/03/08 12:06:03;;;;;;;15.30;11.17;;;;;;;;;;4994745;28;20978;-75
2024/03/08 12:08:29;;;;;;;14.80;12.77;;;;;;;;;;4994222;28;20943;-77
2024/03/08 12:10:59;;;;;;;15.73;12.30;;;;;;;;;;4994672;28;20454;-77
2024/03/08 12:13:26;;;;;;;15.97;12.63;;;;;;;;;;4994509;28;20506;-78
2024/03/08 12:15:52;;;;;;;15.10;13.00;;;;;;;;;;4994616;28;20417;-76
2024/03/08 12:18:17;;;;;;;11.83;10.30;;;;;;;;;;4994520;28;20423;-76
2024/03/08 12:20:49;;;;;;;12.50;11.20;;;;;;;;;;4994527;28;20888;-77
2024/03/08 12:23:16;;;;;;;17.50;11.70;;;;;;;;;;4994131;28;20516;-76
2024/03/08 12:25:42;;;;;;;14.63;11.83;;;;;;;;;;4994400;28;20413;-77
2024/03/08 12:28:15;;;;;;;16.20;13.63;;;;;;;;;;4994344;28;20511;-82
2024/03/08 12:30:56;;;;;;;14.47;10.67;;;;;;;;;;4994280;28;20411;-77
2024/03/08 12:33:22;;;;;;;16.23;11.67;;;;;;;;;;4994219;28;20469;-77
2024/03/08 12:35:55;;;;;;;15.13;12.13;;;;;;;;;;4994190;28;20510;-76
2024/03/08 12:38:25;;;;;;;12.50;11.00;;;;;;;;;;4993917;28;20415;-77
2024/03/08 12:40:51;;;;;;;14.90;11.70;;;;;;;;;;4994043;28;20486;-77
2024/03/08 12:43:17;;;;;;;16.67;11.73;;;;;;;;;;4994263;28;20408;-77
2024/03/08 12:45:43;;;;;;;13.57;11.63;;;;;;;;;;4994054;28;20432;-77
2024/03/08 12:48:16;;;;;;;13.23;11.83;;;;;;;;;;4994030;28;20901;-76
2024/03/08 12:50:47;;;;;;;14.17;11.43;;;;;;;;;;4993642;28;20367;-76
2024/03/08 12:53:13;;;;;;;15.70;11.80;;;;;;;;;;4993080;28;20471;-77
2024/03/08 12:55:40;;;;;;;14.33;12.60;;;;;;;;;;4993638;28;20765;-77
2024/03/08 12:58:07;;;;;;;12.73;11.30;;;;;;;;;;4993930;28;20619;-77
2024/03/08 13:00:36;;;;;;;14.10;11.40;;;;;;;;;;4993743;28;20458;-81
2024/03/08 13:03:02;;;;;;;12.53;10.30;;;;;;;;;;4993781;28;20423;-78
2024/03/08 13:05:28;;;;;;;13.27;11.97;;;;;;;;;;4993554;28;20980;-80
2024/03/08 13:07:54;;;;;;;16.43;12.43;;;;;;;;;;4993959;28;20432;-79
2024/03/08 13:10:20;;;;;;;17.00;12.20;;;;;;;;;;4994210;28;20498;-76
2024/03/08 13:12:46;;;;;;;13.30;11.07;;;;;;;;;;4993988;28;20425;-78
2024/03/08 13:15:19;;;;;;;15.70;12.33;;;;;;;;;;4994113;28;20485;-78
2024/03/08 13:17:46;;;;;;;14.43;11.60;;;;;;;;;;4994066;28;20261;-77
2024/03/08 13:20:18;;;;;;;12.93;11.17;;;;;;;;;;4993930;28;20417;-78
2024/03/08 13:22:46;;;;;;;12.07;8.90;;;;;;;;;;4993788;28;20413;-77
2024/03/08 13:25:13;;;;;;;14.10;11.27;;;;;;;;;;4993959;28;20446;-77
2024/03/08 13:27:48;;;;;;;16.43;10.73;;;;;;;;;;4994665;28;20415;-77
2024/03/08 13:30:18;;;;;;;15.23;11.37;;;;;;;;;;4996704;28;20417;-78
2024/03/08 13:32:44;;;;;;;14.30;10.00;;;;;;;;;;4993763;28;20405;-79
2024/03/08 13:35:13;;;;;;;13.60;10.30;;;;;;;;;;4993707;28;20409;-76
2024/03/08 13:37:43;;;;;;;13.33;9.30;;;;;;;;;;4991918;28;20475;-80
2024/03/08 13:40:13;;;;;;;13.07;10.60;;;;;;;;;;4993694;28;20428;-76
2024/03/08 13:42:42;;;;;;;16.70;10.67;;;;;;;;;;4993626;28;20416;-80
2024/03/08 13:45:12;;;;;;;13.53;10.13;;;;;;;;;;4993434;28;20414;-77
2024/03/08 13:47:41;;;;;;;15.00;10.33;;;;;;;;;;4993519;28;20449;-79
2024/03/08 13:50:18;;;;;;;14.13;9.23;;;;;;;;;;4993224;28;20481;-80
2024/03/08 13:52:44;;;;;;;14.67;9.90;;;;;;;;;;4992949;28;20466;-79
2024/03/08 13:55:11;;;;;;;14.80;9.70;;;;;;;;;;4993392;28;20454;-80
2024/03/08 13:57:37;;;;;;;16.03;10.43;;;;;;;;;;4993270;28;20418;-77
2024/03/08 14:00:03;;;;;;;14.47;10.33;;;;;;;;;;4993255;28;20884;-80
2024/03/08 14:02:30;;;;;;;14.60;11.60;;;;;;;;;;4993211;28;20575;-80
2024/03/08 14:04:56;;;;;;;18.30;10.03;;;;;;;;;;4993730;28;20453;-83
2024/03/08 14:07:23;;;;;;;16.60;12.30;;;;;;;;;;4996725;28;20476;-81
2024/03/08 14:09:49;;;;;;;15.47;9.67;;;;;;;;;;4996940;28;20899;-78
2024/03/08 14:12:15;;;;;;;15.60;8.90;;;;;;;;;;4996674;28;20473;-77
2024/03/08 14:14:44;;;;;;;17.47;11.03;;;;;;;;;;4996806;28;20480;-76
2024/03/08 14:17:10;;;;;;;14.70;10.53;;;;;;;;;;4996689;28;20414;-81
2024/03/08 14:19:36;;;;;;;16.17;11.10;;;;;;;;;;4995469;28;20438;-82